sensor_id;sensor_type;location;lat;lon;timestamp;P1;durP1;ratioP1;P2;durP2;ratioP2
38909;SDS011;24676;51.360;12.354;2023-07-20T00:01:39;6.55;;;4.35;;
38909;SDS011;24676;51.360;12.354;2023-07-20T00:04:25;4.80;;;3.97;;
38909;SDS011;24676;51.360;12.354;2023-07-20T00:07:09;4.90;;;3.17;;
38909;SDS011;24676;51.360;12.354;2023-07-20T00:09:53;7.25;;;3.22;;
38909;SDS011;24676;51.360;12.354;2023-07-20T00:12:38;5.20;;;3.83;;
38909;SDS011;24676;51.360;12.354;2023-07-20T00:15:22;4.88;;;3.53;;
38909;SDS011;24676;51.360;12.354;2023-07-20T00:18:06;4.88;;;2.90;;
38909;SDS011;24676;51.360;12.354;2023-07-20T00:20:51;8.80;;;3.50;;
38909;SDS011;24676;51.360;12.354;2023-07-20T00:23:35;7.85;;;4.53;;
38909;SDS011;24676;51.360;12.354;2023-07-20T00:26:20;2.90;;;2.67;;
38909;SDS011;24676;51.360;12.354;2023-07-20T00:29:04;3.65;;;2.67;;
38909;SDS011;24676;51.360;12.354;2023-07-20T00:31:49;4.97;;;2.80;;
38909;SDS011;24676;51.360;12.354;2023-07-20T00:34:33;6.05;;;2.55;;
38909;SDS011;24676;51.360;12.354;2023-07-20T00:37:18;7.68;;;3.05;;
38909;SDS011;24676;51.360;12.354;2023-07-20T00:40:02;2.75;;;2.53;;
38909;SDS011;24676;51.360;12.354;2023-07-20T00:42:51;3.95;;;2.67;;
38909;SDS011;24676;51.360;12.354;2023-07-20T00:45:35;2.67;;;2.35;;
38909;SDS011;24676;51.360;12.354;2023-07-20T00:48:20;4.70;;;2.72;;
38909;SDS011;24676;51.360;12.354;2023-07-20T00:51:05;4.25;;;2.13;;
38909;SDS011;24676;51.360;12.354;2023-07-20T00:53:50;3.30;;;1.98;;
38909;SDS011;24676;51.360;12.354;2023-07-20T00:56:35;2.47;;;2.22;;
38909;SDS011;24676;51.360;12.354;2023-07-20T00:59:20;3.05;;;2.47;;
38909;SDS011;24676;51.360;12.354;2023-07-20T01:02:05;2.35;;;2.10;;
38909;SDS011;24676;51.360;12.354;2023-07-20T01:04:50;2.50;;;2.30;;
38909;SDS011;24676;51.360;12.354;2023-07-20T01:07:35;3.33;;;2.45;;
38909;SDS011;24676;51.360;12.354;2023-07-20T01:13:22;2.38;;;2.17;;
38909;SDS011;24676;51.360;12.354;2023-07-20T01:16:07;3.45;;;2.72;;
38909;SDS011;24676;51.360;12.354;2023-07-20T01:18:51;4.85;;;3.35;;
38909;SDS011;24676;51.360;12.354;2023-07-20T01:30:59;3.78;;;2.08;;
38909;SDS011;24676;51.360;12.354;2023-07-20T01:34:07;3.17;;;2.92;;
38909;SDS011;24676;51.360;12.354;2023-07-20T01:36:55;3.90;;;2.90;;
38909;SDS011;24676;51.360;12.354;2023-07-20T01:39:41;2.75;;;2.45;;
38909;SDS011;24676;51.360;12.354;2023-07-20T01:42:25;3.53;;;2.15;;
38909;SDS011;24676;51.360;12.354;2023-07-20T01:45:10;3.10;;;2.53;;
38909;SDS011;24676;51.360;12.354;2023-07-20T01:47:54;4.03;;;2.45;;
38909;SDS011;24676;51.360;12.354;2023-07-20T01:50:38;3.63;;;2.97;;
38909;SDS011;24676;51.360;12.354;2023-07-20T01:53:22;2.70;;;2.50;;
38909;SDS011;24676;51.360;12.354;2023-07-20T01:56:07;10.07;;;2.72;;
38909;SDS011;24676;51.360;12.354;2023-07-20T01:58:51;2.95;;;2.67;;
38909;SDS011;24676;51.360;12.354;2023-07-20T02:01:35;2.90;;;2.67;;
38909;SDS011;24676;51.360;12.354;2023-07-20T02:04:19;2.55;;;2.35;;
38909;SDS011;24676;51.360;12.354;2023-07-20T02:07:03;4.55;;;2.63;;
38909;SDS011;24676;51.360;12.354;2023-07-20T02:09:48;3.10;;;1.88;;
38909;SDS011;24676;51.360;12.354;2023-07-20T02:12:32;3.25;;;2.47;;
38909;SDS011;24676;51.360;12.354;2023-07-20T02:15:16;4.22;;;1.98;;
38909;SDS011;24676;51.360;12.354;2023-07-20T02:18:02;1.75;;;1.60;;
38909;SDS011;24676;51.360;12.354;2023-07-20T02:20:47;3.65;;;2.50;;
38909;SDS011;24676;51.360;12.354;2023-07-20T02:23:31;7.25;;;2.05;;
38909;SDS011;24676;51.360;12.354;2023-07-20T02:26:15;2.70;;;2.42;;
38909;SDS011;24676;51.360;12.354;2023-07-20T02:28:59;2.42;;;1.90;;
38909;SDS011;24676;51.360;12.354;2023-07-20T02:31:44;2.38;;;2.17;;
38909;SDS011;24676;51.360;12.354;2023-07-20T02:34:28;3.13;;;2.47;;
38909;SDS011;24676;51.360;12.354;2023-07-20T02:37:12;2.55;;;2.08;;
38909;SDS011;24676;51.360;12.354;2023-07-20T02:39:56;2.88;;;2.30;;
38909;SDS011;24676;51.360;12.354;2023-07-20T02:42:41;3.38;;;2.90;;
38909;SDS011;24676;51.360;12.354;2023-07-20T02:45:25;3.70;;;2.67;;
38909;SDS011;24676;51.360;12.354;2023-07-20T02:48:10;2.95;;;2.38;;
38909;SDS011;24676;51.360;12.354;2023-07-20T02:50:54;2.83;;;2.63;;
38909;SDS011;24676;51.360;12.354;2023-07-20T02:53:39;4.07;;;2.08;;
38909;SDS011;24676;51.360;12.354;2023-07-20T02:56:23;2.55;;;2.35;;
38909;SDS011;24676;51.360;12.354;2023-07-20T02:59:08;5.90;;;2.78;;
38909;SDS011;24676;51.360;12.354;2023-07-20T03:01:52;7.72;;;3.45;;
38909;SDS011;24676;51.360;12.354;2023-07-20T03:04:37;3.70;;;3.40;;
38909;SDS011;24676;51.360;12.354;2023-07-20T03:07:22;2.72;;;2.53;;
38909;SDS011;24676;51.360;12.354;2023-07-20T03:10:06;7.78;;;3.45;;
38909;SDS011;24676;51.360;12.354;2023-07-20T03:12:52;3.55;;;2.25;;
38909;SDS011;24676;51.360;12.354;2023-07-20T03:15:37;3.33;;;2.55;;
38909;SDS011;24676;51.360;12.354;2023-07-20T03:18:20;9.98;;;3.40;;
38909;SDS011;24676;51.360;12.354;2023-07-20T03:21:05;3.35;;;3.05;;
38909;SDS011;24676;51.360;12.354;2023-07-20T03:23:51;3.53;;;2.95;;
38909;SDS011;24676;51.360;12.354;2023-07-20T03:26:35;4.65;;;2.40;;
38909;SDS011;24676;51.360;12.354;2023-07-20T03:29:20;4.13;;;3.00;;
38909;SDS011;24676;51.360;12.354;2023-07-20T03:32:04;3.80;;;2.92;;
38909;SDS011;24676;51.360;12.354;2023-07-20T03:34:49;3.70;;;3.15;;
38909;SDS011;24676;51.360;12.354;2023-07-20T03:37:33;2.50;;;2.30;;
38909;SDS011;24676;51.360;12.354;2023-07-20T03:40:19;3.70;;;2.40;;
38909;SDS011;24676;51.360;12.354;2023-07-20T03:43:03;2.50;;;2.30;;
38909;SDS011;24676;51.360;12.354;2023-07-20T03:45:47;8.27;;;3.38;;
38909;SDS011;24676;51.360;12.354;2023-07-20T03:48:33;2.70;;;2.55;;
38909;SDS011;24676;51.360;12.354;2023-07-20T03:51:17;5.15;;;2.75;;
38909;SDS011;24676;51.360;12.354;2023-07-20T03:54:01;4.32;;;3.15;;
38909;SDS011;24676;51.360;12.354;2023-07-20T03:56:45;3.00;;;2.38;;
38909;SDS011;24676;51.360;12.354;2023-07-20T03:59:29;2.70;;;2.50;;
38909;SDS011;24676;51.360;12.354;2023-07-20T04:02:14;4.07;;;2.92;;
38909;SDS011;24676;51.360;12.354;2023-07-20T04:04:58;4.40;;;2.80;;
38909;SDS011;24676;51.360;12.354;2023-07-20T04:07:42;4.50;;;2.92;;
38909;SDS011;24676;51.360;12.354;2023-07-20T04:10:26;4.03;;;3.22;;
38909;SDS011;24676;51.360;12.354;2023-07-20T04:13:10;5.70;;;2.70;;
38909;SDS011;24676;51.360;12.354;2023-07-20T04:15:55;4.40;;;3.00;;
38909;SDS011;24676;51.360;12.354;2023-07-20T04:18:40;4.85;;;3.08;;
38909;SDS011;24676;51.360;12.354;2023-07-20T04:21:25;2.95;;;2.55;;
38909;SDS011;24676;51.360;12.354;2023-07-20T04:24:10;15.43;;;3.95;;
38909;SDS011;24676;51.360;12.354;2023-07-20T04:26:54;4.57;;;2.50;;
38909;SDS011;24676;51.360;12.354;2023-07-20T04:29:39;17.30;;;4.07;;
38909;SDS011;24676;51.360;12.354;2023-07-20T04:32:23;8.00;;;3.63;;
38909;SDS011;24676;51.360;12.354;2023-07-20T04:35:07;4.50;;;3.03;;
38909;SDS011;24676;51.360;12.354;2023-07-20T04:37:51;4.38;;;2.95;;
38909;SDS011;24676;51.360;12.354;2023-07-20T04:40:35;2.35;;;2.00;;
38909;SDS011;24676;51.360;12.354;2023-07-20T04:43:20;7.57;;;2.92;;
38909;SDS011;24676;51.360;12.354;2023-07-20T04:46:04;5.80;;;3.25;;
38909;SDS011;24676;51.360;12.354;2023-07-20T04:48:48;3.45;;;3.15;;
38909;SDS011;24676;51.360;12.354;2023-07-20T04:51:32;5.22;;;3.03;;
38909;SDS011;24676;51.360;12.354;2023-07-20T04:54:16;2.92;;;2.65;;
38909;SDS011;24676;51.360;12.354;2023-07-20T04:57:01;7.35;;;2.88;;
38909;SDS011;24676;51.360;12.354;2023-07-20T04:59:45;2.85;;;2.65;;
38909;SDS011;24676;51.360;12.354;2023-07-20T05:02:31;2.78;;;2.58;;
38909;SDS011;24676;51.360;12.354;2023-07-20T05:05:15;4.82;;;2.55;;
38909;SDS011;24676;51.360;12.354;2023-07-20T05:07:59;3.38;;;2.20;;
38909;SDS011;24676;51.360;12.354;2023-07-20T05:10:43;2.63;;;1.70;;
38909;SDS011;24676;51.360;12.354;2023-07-20T05:13:28;5.18;;;2.70;;
38909;SDS011;24676;51.360;12.354;2023-07-20T05:16:11;3.25;;;2.08;;
38909;SDS011;24676;51.360;12.354;2023-07-20T05:18:55;2.75;;;2.30;;
38909;SDS011;24676;51.360;12.354;2023-07-20T05:21:40;2.80;;;2.28;;
38909;SDS011;24676;51.360;12.354;2023-07-20T05:24:24;8.07;;;2.30;;
38909;SDS011;24676;51.360;12.354;2023-07-20T05:27:08;3.72;;;1.70;;
38909;SDS011;24676;51.360;12.354;2023-07-20T05:29:52;2.80;;;2.58;;
38909;SDS011;24676;51.360;12.354;2023-07-20T05:32:36;4.65;;;3.03;;
38909;SDS011;24676;51.360;12.354;2023-07-20T05:35:20;3.08;;;2.10;;
38909;SDS011;24676;51.360;12.354;2023-07-20T05:38:06;1.98;;;1.77;;
38909;SDS011;24676;51.360;12.354;2023-07-20T05:40:50;4.90;;;3.25;;
38909;SDS011;24676;51.360;12.354;2023-07-20T05:43:34;5.00;;;3.10;;
38909;SDS011;24676;51.360;12.354;2023-07-20T05:46:18;3.80;;;2.30;;
38909;SDS011;24676;51.360;12.354;2023-07-20T05:49:02;2.60;;;2.40;;
38909;SDS011;24676;51.360;12.354;2023-07-20T05:51:46;3.65;;;2.63;;
38909;SDS011;24676;51.360;12.354;2023-07-20T05:54:31;5.40;;;2.13;;
38909;SDS011;24676;51.360;12.354;2023-07-20T05:57:16;1.85;;;1.75;;
38909;SDS011;24676;51.360;12.354;2023-07-20T06:00:00;2.20;;;2.00;;
38909;SDS011;24676;51.360;12.354;2023-07-20T06:02:45;2.67;;;1.83;;
38909;SDS011;24676;51.360;12.354;2023-07-20T06:05:31;4.28;;;2.13;;
38909;SDS011;24676;51.360;12.354;2023-07-20T06:08:16;2.15;;;1.95;;
38909;SDS011;24676;51.360;12.354;2023-07-20T06:11:00;2.80;;;2.10;;
38909;SDS011;24676;51.360;12.354;2023-07-20T06:13:44;5.90;;;2.50;;
38909;SDS011;24676;51.360;12.354;2023-07-20T06:16:29;1.77;;;1.67;;
38909;SDS011;24676;51.360;12.354;2023-07-20T06:19:13;1.90;;;1.50;;
38909;SDS011;24676;51.360;12.354;2023-07-20T06:21:57;2.92;;;1.42;;
38909;SDS011;24676;51.360;12.354;2023-07-20T06:24:41;2.17;;;1.95;;
38909;SDS011;24676;51.360;12.354;2023-07-20T06:27:26;3.22;;;2.03;;
38909;SDS011;24676;51.360;12.354;2023-07-20T06:30:10;0.98;;;0.88;;
38909;SDS011;24676;51.360;12.354;2023-07-20T06:32:55;4.22;;;2.50;;
38909;SDS011;24676;51.360;12.354;2023-07-20T06:35:43;5.88;;;1.48;;
38909;SDS011;24676;51.360;12.354;2023-07-20T06:38:27;3.17;;;1.50;;
38909;SDS011;24676;51.360;12.354;2023-07-20T06:41:12;1.27;;;1.20;;
38909;SDS011;24676;51.360;12.354;2023-07-20T06:43:56;2.25;;;2.05;;
38909;SDS011;24676;51.360;12.354;2023-07-20T06:46:42;1.50;;;1.40;;
38909;SDS011;24676;51.360;12.354;2023-07-20T06:49:27;1.83;;;1.70;;
38909;SDS011;24676;51.360;12.354;2023-07-20T06:52:11;1.55;;;1.42;;
38909;SDS011;24676;51.360;12.354;2023-07-20T06:54:56;3.42;;;2.00;;
38909;SDS011;24676;51.360;12.354;2023-07-20T06:57:40;1.92;;;1.83;;
38909;SDS011;24676;51.360;12.354;2023-07-20T07:00:24;1.42;;;1.27;;
38909;SDS011;24676;51.360;12.354;2023-07-20T07:03:08;1.10;;;1.00;;
38909;SDS011;24676;51.360;12.354;2023-07-20T07:05:54;1.30;;;0.90;;
38909;SDS011;24676;51.360;12.354;2023-07-20T07:08:40;2.53;;;1.33;;
38909;SDS011;24676;51.360;12.354;2023-07-20T07:11:24;6.25;;;3.33;;
38909;SDS011;24676;51.360;12.354;2023-07-20T07:14:08;7.07;;;1.85;;
38909;SDS011;24676;51.360;12.354;2023-07-20T07:16:52;0.98;;;0.98;;
38909;SDS011;24676;51.360;12.354;2023-07-20T07:19:36;2.65;;;1.27;;
38909;SDS011;24676;51.360;12.354;2023-07-20T07:22:22;1.35;;;1.20;;
38909;SDS011;24676;51.360;12.354;2023-07-20T07:25:06;4.53;;;2.70;;
38909;SDS011;24676;51.360;12.354;2023-07-20T07:27:52;5.30;;;1.48;;
38909;SDS011;24676;51.360;12.354;2023-07-20T07:30:37;3.05;;;1.08;;
38909;SDS011;24676;51.360;12.354;2023-07-20T07:33:22;8.65;;;2.55;;
38909;SDS011;24676;51.360;12.354;2023-07-20T07:36:06;2.88;;;2.38;;
38909;SDS011;24676;51.360;12.354;2023-07-20T07:38:51;1.63;;;1.45;;
38909;SDS011;24676;51.360;12.354;2023-07-20T07:41:35;1.42;;;1.33;;
38909;SDS011;24676;51.360;12.354;2023-07-20T07:44:19;1.05;;;0.90;;
38909;SDS011;24676;51.360;12.354;2023-07-20T07:47:04;1.08;;;0.98;;
38909;SDS011;24676;51.360;12.354;2023-07-20T07:49:49;1.48;;;1.13;;
38909;SDS011;24676;51.360;12.354;2023-07-20T07:52:33;1.30;;;1.17;;
38909;SDS011;24676;51.360;12.354;2023-07-20T07:55:18;2.55;;;1.30;;
38909;SDS011;24676;51.360;12.354;2023-07-20T07:58:02;0.98;;;0.95;;
38909;SDS011;24676;51.360;12.354;2023-07-20T08:00:46;1.08;;;1.02;;
38909;SDS011;24676;51.360;12.354;2023-07-20T08:03:31;1.75;;;1.30;;
38909;SDS011;24676;51.360;12.354;2023-07-20T08:06:15;1.00;;;0.90;;
38909;SDS011;24676;51.360;12.354;2023-07-20T08:09:00;2.83;;;1.17;;
38909;SDS011;24676;51.360;12.354;2023-07-20T08:11:45;1.38;;;0.93;;
38909;SDS011;24676;51.360;12.354;2023-07-20T08:14:30;3.75;;;0.98;;
38909;SDS011;24676;51.360;12.354;2023-07-20T08:17:14;1.17;;;1.02;;
38909;SDS011;24676;51.360;12.354;2023-07-20T08:19:58;3.20;;;1.58;;
38909;SDS011;24676;51.360;12.354;2023-07-20T08:22:43;1.45;;;1.35;;
38909;SDS011;24676;51.360;12.354;2023-07-20T08:25:27;1.90;;;1.10;;
38909;SDS011;24676;51.360;12.354;2023-07-20T08:28:15;3.72;;;1.13;;
38909;SDS011;24676;51.360;12.354;2023-07-20T08:31:00;2.55;;;1.17;;
38909;SDS011;24676;51.360;12.354;2023-07-20T08:33:44;1.85;;;1.20;;
38909;SDS011;24676;51.360;12.354;2023-07-20T08:36:28;7.47;;;1.30;;
38909;SDS011;24676;51.360;12.354;2023-07-20T08:39:13;1.15;;;1.15;;
38909;SDS011;24676;51.360;12.354;2023-07-20T08:41:58;0.82;;;0.80;;
38909;SDS011;24676;51.360;12.354;2023-07-20T08:44:48;1.48;;;1.27;;
38909;SDS011;24676;51.360;12.354;2023-07-20T08:47:33;1.25;;;1.20;;
38909;SDS011;24676;51.360;12.354;2023-07-20T08:50:17;2.05;;;1.20;;
38909;SDS011;24676;51.360;12.354;2023-07-20T08:53:03;1.25;;;1.15;;
38909;SDS011;24676;51.360;12.354;2023-07-20T08:55:48;1.38;;;1.30;;
38909;SDS011;24676;51.360;12.354;2023-07-20T08:58:34;1.10;;;1.10;;
38909;SDS011;24676;51.360;12.354;2023-07-20T09:01:20;4.85;;;0.93;;
38909;SDS011;24676;51.360;12.354;2023-07-20T09:04:06;10.73;;;1.77;;
38909;SDS011;24676;51.360;12.354;2023-07-20T09:06:50;3.30;;;1.20;;
38909;SDS011;24676;51.360;12.354;2023-07-20T09:09:39;1.73;;;1.48;;
38909;SDS011;24676;51.360;12.354;2023-07-20T09:12:25;5.60;;;1.80;;
38909;SDS011;24676;51.360;12.354;2023-07-20T09:15:10;2.78;;;1.70;;
38909;SDS011;24676;51.360;12.354;2023-07-20T09:17:54;0.80;;;0.80;;
38909;SDS011;24676;51.360;12.354;2023-07-20T09:20:39;1.35;;;1.35;;
38909;SDS011;24676;51.360;12.354;2023-07-20T09:23:29;3.15;;;1.35;;
38909;SDS011;24676;51.360;12.354;2023-07-20T09:26:17;2.90;;;1.35;;
38909;SDS011;24676;51.360;12.354;2023-07-20T09:29:05;1.17;;;1.10;;
38909;SDS011;24676;51.360;12.354;2023-07-20T09:32:02;2.65;;;2.20;;
38909;SDS011;24676;51.360;12.354;2023-07-20T09:34:49;1.98;;;1.48;;
38909;SDS011;24676;51.360;12.354;2023-07-20T09:37:35;7.82;;;2.45;;
38909;SDS011;24676;51.360;12.354;2023-07-20T09:40:19;4.00;;;1.65;;
38909;SDS011;24676;51.360;12.354;2023-07-20T09:43:07;3.03;;;2.38;;
38909;SDS011;24676;51.360;12.354;2023-07-20T09:45:52;1.60;;;1.48;;
38909;SDS011;24676;51.360;12.354;2023-07-20T09:48:42;2.05;;;1.92;;
38909;SDS011;24676;51.360;12.354;2023-07-20T09:51:38;1.70;;;1.60;;
38909;SDS011;24676;51.360;12.354;2023-07-20T09:54:23;5.03;;;2.45;;
38909;SDS011;24676;51.360;12.354;2023-07-20T09:57:11;2.97;;;1.80;;
38909;SDS011;24676;51.360;12.354;2023-07-20T09:59:57;3.65;;;2.20;;
38909;SDS011;24676;51.360;12.354;2023-07-20T10:02:43;3.17;;;2.88;;
38909;SDS011;24676;51.360;12.354;2023-07-20T10:05:28;4.90;;;2.78;;
38909;SDS011;24676;51.360;12.354;2023-07-20T10:08:18;6.05;;;3.42;;
38909;SDS011;24676;51.360;12.354;2023-07-20T10:11:04;5.10;;;3.45;;
38909;SDS011;24676;51.360;12.354;2023-07-20T10:13:51;4.38;;;3.65;;
38909;SDS011;24676;51.360;12.354;2023-07-20T10:16:39;3.83;;;2.88;;
38909;SDS011;24676;51.360;12.354;2023-07-20T10:22:30;11.90;;;3.17;;
38909;SDS011;24676;51.360;12.354;2023-07-20T10:25:19;1.88;;;1.77;;
38909;SDS011;24676;51.360;12.354;2023-07-20T10:28:05;2.10;;;2.00;;
38909;SDS011;24676;51.360;12.354;2023-07-20T10:30:50;1.45;;;1.25;;
38909;SDS011;24676;51.360;12.354;2023-07-20T10:33:36;1.20;;;1.10;;
38909;SDS011;24676;51.360;12.354;2023-07-20T10:36:27;4.30;;;1.63;;
38909;SDS011;24676;51.360;12.354;2023-07-20T10:39:24;1.10;;;1.10;;
38909;SDS011;24676;51.360;12.354;2023-07-20T10:42:11;1.17;;;1.08;;
38909;SDS011;24676;51.360;12.354;2023-07-20T10:44:55;0.98;;;0.98;;
38909;SDS011;24676;51.360;12.354;2023-07-20T10:47:45;1.55;;;1.45;;
38909;SDS011;24676;51.360;12.354;2023-07-20T10:50:30;1.48;;;1.38;;
38909;SDS011;24676;51.360;12.354;2023-07-20T10:53:17;1.48;;;1.38;;
38909;SDS011;24676;51.360;12.354;2023-07-20T10:56:06;1.20;;;1.17;;
38909;SDS011;24676;51.360;12.354;2023-07-20T10:58:58;3.30;;;1.30;;
38909;SDS011;24676;51.360;12.354;2023-07-20T11:01:43;0.65;;;0.65;;
38909;SDS011;24676;51.360;12.354;2023-07-20T11:04:38;0.98;;;0.98;;
38909;SDS011;24676;51.360;12.354;2023-07-20T11:07:36;1.00;;;0.95;;
38909;SDS011;24676;51.360;12.354;2023-07-20T11:10:24;1.75;;;0.80;;
38909;SDS011;24676;51.360;12.354;2023-07-20T11:13:18;1.48;;;1.20;;
38909;SDS011;24676;51.360;12.354;2023-07-20T11:16:07;2.92;;;0.93;;
38909;SDS011;24676;51.360;12.354;2023-07-20T11:18:51;0.65;;;0.47;;
38909;SDS011;24676;51.360;12.354;2023-07-20T11:21:36;0.82;;;0.68;;
38909;SDS011;24676;51.360;12.354;2023-07-20T11:24:22;0.70;;;0.50;;
38909;SDS011;24676;51.360;12.354;2023-07-20T11:27:07;3.20;;;0.85;;
38909;SDS011;24676;51.360;12.354;2023-07-20T11:29:51;0.70;;;0.70;;
38909;SDS011;24676;51.360;12.354;2023-07-20T11:32:35;0.82;;;0.82;;
38909;SDS011;24676;51.360;12.354;2023-07-20T11:35:19;1.77;;;0.70;;
38909;SDS011;24676;51.360;12.354;2023-07-20T11:38:04;0.85;;;0.60;;
38909;SDS011;24676;51.360;12.354;2023-07-20T11:40:48;0.63;;;0.63;;
38909;SDS011;24676;51.360;12.354;2023-07-20T11:43:32;1.83;;;0.82;;
38909;SDS011;24676;51.360;12.354;2023-07-20T11:46:17;0.68;;;0.68;;
38909;SDS011;24676;51.360;12.354;2023-07-20T11:49:01;5.03;;;0.93;;
38909;SDS011;24676;51.360;12.354;2023-07-20T11:51:46;0.75;;;0.70;;
38909;SDS011;24676;51.360;12.354;2023-07-20T11:54:30;0.57;;;0.57;;
38909;SDS011;24676;51.360;12.354;2023-07-20T11:57:18;1.05;;;0.75;;
38909;SDS011;24676;51.360;12.354;2023-07-20T12:00:04;1.75;;;0.65;;
38909;SDS011;24676;51.360;12.354;2023-07-20T12:02:55;1.63;;;1.20;;
38909;SDS011;24676;51.360;12.354;2023-07-20T12:05:40;0.95;;;0.95;;
38909;SDS011;24676;51.360;12.354;2023-07-20T12:08:24;0.68;;;0.60;;
38909;SDS011;24676;51.360;12.354;2023-07-20T12:11:08;0.47;;;0.47;;
38909;SDS011;24676;51.360;12.354;2023-07-20T12:13:54;2.75;;;0.65;;
38909;SDS011;24676;51.360;12.354;2023-07-20T12:16:42;0.50;;;0.50;;
38909;SDS011;24676;51.360;12.354;2023-07-20T12:19:26;0.80;;;0.80;;
38909;SDS011;24676;51.360;12.354;2023-07-20T12:22:11;0.65;;;0.57;;
38909;SDS011;24676;51.360;12.354;2023-07-20T12:24:55;0.63;;;0.63;;
38909;SDS011;24676;51.360;12.354;2023-07-20T12:27:39;0.68;;;0.68;;
38909;SDS011;24676;51.360;12.354;2023-07-20T12:30:25;0.40;;;0.30;;
38909;SDS011;24676;51.360;12.354;2023-07-20T12:33:09;0.40;;;0.13;;
38909;SDS011;24676;51.360;12.354;2023-07-20T12:35:55;0.20;;;0.13;;
38909;SDS011;24676;51.360;12.354;2023-07-20T12:38:39;0.05;;;0.05;;
38909;SDS011;24676;51.360;12.354;2023-07-20T12:41:25;0.20;;;0.20;;
38909;SDS011;24676;51.360;12.354;2023-07-20T12:44:09;0.20;;;0.20;;
38909;SDS011;24676;51.360;12.354;2023-07-20T12:46:53;0.47;;;0.30;;
38909;SDS011;24676;51.360;12.354;2023-07-20T12:49:38;1.85;;;0.50;;
38909;SDS011;24676;51.360;12.354;2023-07-20T12:52:23;0.20;;;0.20;;
38909;SDS011;24676;51.360;12.354;2023-07-20T12:55:07;0.40;;;0.17;;
38909;SDS011;24676;51.360;12.354;2023-07-20T12:57:52;0.20;;;0.20;;
38909;SDS011;24676;51.360;12.354;2023-07-20T13:00:37;0.20;;;0.10;;
38909;SDS011;24676;51.360;12.354;2023-07-20T13:03:21;0.10;;;0.10;;
38909;SDS011;24676;51.360;12.354;2023-07-20T13:06:05;1.00;;;0.50;;
38909;SDS011;24676;51.360;12.354;2023-07-20T13:08:50;0.50;;;0.50;;
38909;SDS011;24676;51.360;12.354;2023-07-20T13:11:38;0.10;;;0.10;;
38909;SDS011;24676;51.360;12.354;2023-07-20T13:14:23;0.20;;;0.20;;
38909;SDS011;24676;51.360;12.354;2023-07-20T13:17:07;0.15;;;0.10;;
38909;SDS011;24676;51.360;12.354;2023-07-20T13:19:51;0.40;;;0.40;;
38909;SDS011;24676;51.360;12.354;2023-07-20T13:22:36;0.77;;;0.35;;
38909;SDS011;24676;51.360;12.354;2023-07-20T13:25:21;0.40;;;0.40;;
38909;SDS011;24676;51.360;12.354;2023-07-20T13:28:05;0.63;;;0.47;;
38909;SDS011;24676;51.360;12.354;2023-07-20T13:30:49;0.47;;;0.47;;
38909;SDS011;24676;51.360;12.354;2023-07-20T13:33:34;0.52;;;0.32;;
38909;SDS011;24676;51.360;12.354;2023-07-20T13:36:19;0.75;;;0.65;;
38909;SDS011;24676;51.360;12.354;2023-07-20T13:39:04;1.00;;;1.00;;
38909;SDS011;24676;51.360;12.354;2023-07-20T13:41:48;0.68;;;0.68;;
38909;SDS011;24676;51.360;12.354;2023-07-20T13:44:32;0.82;;;0.80;;
38909;SDS011;24676;51.360;12.354;2023-07-20T13:47:17;0.45;;;0.45;;
38909;SDS011;24676;51.360;12.354;2023-07-20T13:50:01;0.60;;;0.60;;
38909;SDS011;24676;51.360;12.354;2023-07-20T13:52:46;0.80;;;0.80;;
38909;SDS011;24676;51.360;12.354;2023-07-20T13:55:30;0.70;;;0.70;;
38909;SDS011;24676;51.360;12.354;2023-07-20T13:58:17;0.90;;;0.90;;
38909;SDS011;24676;51.360;12.354;2023-07-20T14:01:02;1.45;;;0.80;;
38909;SDS011;24676;51.360;12.354;2023-07-20T14:03:46;0.82;;;0.82;;
38909;SDS011;24676;51.360;12.354;2023-07-20T14:06:31;1.20;;;1.10;;
38909;SDS011;24676;51.360;12.354;2023-07-20T14:09:16;0.90;;;0.90;;
38909;SDS011;24676;51.360;12.354;2023-07-20T14:12:00;0.80;;;0.80;;
38909;SDS011;24676;51.360;12.354;2023-07-20T14:14:45;5.35;;;1.15;;
38909;SDS011;24676;51.360;12.354;2023-07-20T14:17:29;0.73;;;0.70;;
38909;SDS011;24676;51.360;12.354;2023-07-20T14:20:14;1.17;;;0.80;;
38909;SDS011;24676;51.360;12.354;2023-07-20T14:22:58;1.38;;;1.05;;
38909;SDS011;24676;51.360;12.354;2023-07-20T14:25:42;0.73;;;0.73;;
38909;SDS011;24676;51.360;12.354;2023-07-20T14:28:26;1.08;;;1.02;;
38909;SDS011;24676;51.360;12.354;2023-07-20T14:31:11;1.77;;;1.67;;
38909;SDS011;24676;51.360;12.354;2023-07-20T14:33:55;0.80;;;0.80;;
38909;SDS011;24676;51.360;12.354;2023-07-20T14:36:39;0.80;;;0.80;;
38909;SDS011;24676;51.360;12.354;2023-07-20T14:39:23;1.25;;;0.95;;
38909;SDS011;24676;51.360;12.354;2023-07-20T14:42:08;0.73;;;0.73;;
38909;SDS011;24676;51.360;12.354;2023-07-20T14:44:52;1.02;;;1.00;;
38909;SDS011;24676;51.360;12.354;2023-07-20T14:47:37;1.10;;;1.00;;
38909;SDS011;24676;51.360;12.354;2023-07-20T14:50:21;1.80;;;1.05;;
38909;SDS011;24676;51.360;12.354;2023-07-20T14:53:06;0.95;;;0.75;;
38909;SDS011;24676;51.360;12.354;2023-07-20T14:55:51;0.80;;;0.80;;
38909;SDS011;24676;51.360;12.354;2023-07-20T14:58:35;0.98;;;0.98;;
38909;SDS011;24676;51.360;12.354;2023-07-20T15:01:19;1.38;;;1.38;;
38909;SDS011;24676;51.360;12.354;2023-07-20T15:04:03;0.98;;;0.98;;
38909;SDS011;24676;51.360;12.354;2023-07-20T15:06:48;1.02;;;1.02;;
38909;SDS011;24676;51.360;12.354;2023-07-20T15:09:32;0.73;;;0.70;;
38909;SDS011;24676;51.360;12.354;2023-07-20T15:12:17;0.77;;;0.77;;
38909;SDS011;24676;51.360;12.354;2023-07-20T15:15:06;0.55;;;0.55;;
38909;SDS011;24676;51.360;12.354;2023-07-20T15:17:54;0.57;;;0.57;;
38909;SDS011;24676;51.360;12.354;2023-07-20T15:20:38;0.50;;;0.50;;
38909;SDS011;24676;51.360;12.354;2023-07-20T15:23:22;0.32;;;0.32;;
38909;SDS011;24676;51.360;12.354;2023-07-20T15:26:06;0.45;;;0.32;;
38909;SDS011;24676;51.360;12.354;2023-07-20T15:28:50;1.35;;;0.30;;
38909;SDS011;24676;51.360;12.354;2023-07-20T15:31:34;0.20;;;0.20;;
38909;SDS011;24676;51.360;12.354;2023-07-20T15:34:19;0.30;;;0.30;;
38909;SDS011;24676;51.360;12.354;2023-07-20T15:37:04;0.28;;;0.28;;
38909;SDS011;24676;51.360;12.354;2023-07-20T15:39:49;0.17;;;0.17;;
38909;SDS011;24676;51.360;12.354;2023-07-20T15:42:34;2.58;;;0.20;;
38909;SDS011;24676;51.360;12.354;2023-07-20T15:45:18;0.77;;;0.57;;
38909;SDS011;24676;51.360;12.354;2023-07-20T15:48:03;0.10;;;0.10;;
38909;SDS011;24676;51.360;12.354;2023-07-20T15:50:48;0.35;;;0.35;;
38909;SDS011;24676;51.360;12.354;2023-07-20T15:53:32;1.23;;;0.40;;
38909;SDS011;24676;51.360;12.354;2023-07-20T15:56:17;0.63;;;0.20;;
38909;SDS011;24676;51.360;12.354;2023-07-20T15:59:01;0.10;;;0.10;;
38909;SDS011;24676;51.360;12.354;2023-07-20T16:01:46;0.22;;;0.13;;
38909;SDS011;24676;51.360;12.354;2023-07-20T16:04:30;0.20;;;0.20;;
38909;SDS011;24676;51.360;12.354;2023-07-20T16:07:14;0.43;;;0.43;;
38909;SDS011;24676;51.360;12.354;2023-07-20T16:09:59;0.20;;;0.20;;
38909;SDS011;24676;51.360;12.354;2023-07-20T16:12:45;0.30;;;0.30;;
38909;SDS011;24676;51.360;12.354;2023-07-20T16:15:30;0.30;;;0.30;;
38909;SDS011;24676;51.360;12.354;2023-07-20T16:18:14;1.75;;;0.32;;
38909;SDS011;24676;51.360;12.354;2023-07-20T16:20:59;0.52;;;0.35;;
38909;SDS011;24676;51.360;12.354;2023-07-20T16:23:43;1.60;;;0.20;;
38909;SDS011;24676;51.360;12.354;2023-07-20T16:26:28;1.05;;;0.35;;
38909;SDS011;24676;51.360;12.354;2023-07-20T16:29:13;0.35;;;0.30;;
38909;SDS011;24676;51.360;12.354;2023-07-20T16:31:57;0.10;;;0.10;;
38909;SDS011;24676;51.360;12.354;2023-07-20T16:34:41;0.40;;;0.40;;